Time;durP1;ratioP1;P1;durP2;ratioP2;P2;SDS_P1;SDS_P2;PMS_P1;PMS_P2;Temp;Humidity;BMP_temperature;BMP_pressure;BME280_temperature;BME280_humidity;BME280_pressure;Samples;Min_cycle;Max_cycle;Signal;HPM_P1;HPM_P2
2022/04/09 00:00:59;;;;;;;2.67;1.60;;;;;;;16.48;41.65;91116.13;5031986;28;20106;-92
2022/04/09 00:03:24;;;;;;;1.70;1.38;;;;;;;16.46;41.77;91114.69;5049561;28;20572;-89
2022/04/09 00:05:52;;;;;;;2.08;1.17;;;;;;;16.46;41.50;91125.59;5052287;28;20045;-87
2022/04/09 00:08:17;;;;;;;2.38;1.40;;;;;;;16.46;41.65;91113.94;5049310;28;20037;-87
2022/04/09 00:10:43;;;;;;;2.72;1.60;;;;;;;16.48;41.82;91105.94;5032159;28;20072;-91
2022/04/09 00:13:08;;;;;;;1.95;1.40;;;;;;;16.46;41.82;91094.88;5016154;28;20037;-88
2022/04/09 00:15:33;;;;;;;2.70;1.48;;;;;;;16.46;41.90;91094.88;5015708;28;20388;-87
2022/04/09 00:17:59;;;;;;;1.40;1.08;;;;;;;16.44;42.04;91095.44;5049286;28;20399;-90
2022/04/09 00:20:24;;;;;;;2.28;1.20;;;;;;;16.46;41.57;91092.13;5014645;28;20404;-87
2022/04/09 00:22:52;;;;;;;2.15;1.30;;;;;;;16.48;41.76;91083.41;5023839;28;20622;-88
2022/04/09 00:25:23;;;;;;;2.13;1.10;;;;;;;16.46;41.57;91075.78;5051985;28;20094;-89
2022/04/09 00:27:49;;;;;;;1.88;1.33;;;;;;;16.46;41.82;91081.94;5037523;28;20048;-88
2022/04/09 00:30:15;;;;;;;1.13;0.90;;;;;;;16.45;41.76;91080.50;5034726;28;20052;-88
2022/04/09 00:32:40;;;;;;;2.60;1.10;;;;;;;16.44;41.73;91081.81;5016994;28;20400;-87
2022/04/09 00:35:06;;;;;;;2.05;1.30;;;;;;;16.43;41.86;91083.09;5030031;28;20307;-91
2022/04/09 00:37:32;;;;;;;2.05;1.08;;;;;;;16.45;41.54;91074.34;5026907;28;20434;-89
2022/04/09 00:39:58;;;;;;;2.17;1.33;;;;;;;16.45;41.77;91074.34;5014928;28;20037;-88
2022/04/09 00:42:23;;;;;;;1.48;0.85;;;;;;;16.45;41.52;91068.91;5014501;28;20032;-88
2022/04/09 00:44:49;;;;;;;1.65;1.23;;;;;;;16.44;41.86;91073.63;5031640;28;20534;-87
2022/04/09 00:47:15;;;;;;;1.92;1.30;;;;;;;16.44;41.85;91068.19;5031671;28;20060;-89
2022/04/09 00:49:40;;;;;;;2.47;1.25;;;;;;;16.45;41.52;91063.44;5031571;28;20037;-89
2022/04/09 00:52:07;;;;;;;2.08;1.10;;;;;;;16.43;41.79;91068.72;5015195;28;20045;-88
2022/04/09 00:54:33;;;;;;;1.10;0.93;;;;;;;16.44;41.81;91067.44;5014981;28;20310;-88
2022/04/09 00:57:05;;;;;;;1.20;1.10;;;;;;;16.45;41.59;91072.31;5032451;28;20098;-88
2022/04/09 00:59:31;;;;;;;1.63;1.00;;;;;;;16.44;41.65;91076.34;4998961;28;20094;-90
2022/04/09 01:01:56;;;;;;;2.03;1.20;;;;;;;16.44;41.52;91076.34;5014174;28;20044;-87
2022/04/09 01:04:22;;;;;;;1.92;1.30;;;;;;;16.44;41.84;91070.91;5014805;28;20041;-90
2022/04/09 01:06:47;;;;;;;3.70;1.42;;;;;;;16.43;41.53;91066.00;5034214;28;20096;-88
2022/04/09 01:09:12;;;;;;;1.67;1.20;;;;;;;16.43;41.58;91060.53;5020514;28;20033;-92
2022/04/09 01:11:39;;;;;;;1.35;0.88;;;;;;;16.42;41.71;91070.72;5048157;28;20436;-88
2022/04/09 01:14:04;;;;;;;2.58;1.05;;;;;;;16.44;41.72;91062.00;5014202;28;20120;-91
2022/04/09 01:16:30;;;;;;;1.88;1.05;;;;;;;16.45;41.64;91077.09;5014787;28;20098;-89
2022/04/09 01:18:57;;;;;;;1.30;0.85;;;;;;;16.45;41.76;91066.88;5032044;28;20029;-88
2022/04/09 01:21:25;;;;;;;2.20;1.15;;;;;;;16.44;41.81;91079.09;5014828;28;20048;-91
2022/04/09 01:23:51;;;;;;;0.88;0.80;;;;;;;16.42;41.62;91083.63;4998072;28;20079;-91
2022/04/09 01:26:16;;;;;;;1.63;0.88;;;;;;;16.42;41.95;91089.81;5013564;28;20033;-89
2022/04/09 01:28:42;;;;;;;2.95;1.15;;;;;;;16.43;41.64;91087.81;5014680;28;20483;-88
2022/04/09 01:31:08;;;;;;;1.73;1.00;;;;;;;16.43;41.80;91093.28;5015435;28;20389;-88
2022/04/09 01:33:33;;;;;;;1.23;0.90;;;;;;;16.44;41.64;91100.16;5030302;28;20061;-88
2022/04/09 01:35:59;;;;;;;1.98;1.13;;;;;;;16.44;41.58;91097.44;5013622;28;20037;-89
2022/04/09 01:38:24;;;;;;;1.98;0.98;;;;;;;16.44;41.55;91098.16;5044410;28;20039;-88
2022/04/09 01:40:49;;;;;;;1.02;0.90;;;;;;;16.43;41.54;91099.44;5033617;28;20644;-88
2022/04/09 01:43:15;;;;;;;1.77;0.90;;;;;;;16.44;41.84;91075.63;5032428;28;20276;-89
2022/04/09 01:45:41;;;;;;;1.17;0.70;;;;;;;16.43;41.63;91096.72;5030045;28;20064;-89
2022/04/09 01:48:06;;;;;;;1.40;0.90;;;;;;;16.42;41.60;91108.91;5014129;28;20036;-90
2022/04/09 01:50:32;;;;;;;2.50;1.13;;;;;;;16.41;41.68;91096.53;5030445;28;20033;-88
2022/04/09 01:52:57;;;;;;;1.52;0.93;;;;;;;16.40;41.63;91111.47;5030187;28;20037;-89
2022/04/09 01:55:23;;;;;;;0.90;0.68;;;;;;;16.41;41.69;91115.63;5029891;28;20110;-90
2022/04/09 01:57:49;;;;;;;0.80;0.80;;;;;;;16.42;41.83;91127.25;5029715;28;20037;-86
2022/04/09 02:00:15;;;;;;;1.60;1.13;;;;;;;16.42;41.60;91119.09;5029562;28;20041;-90
2022/04/09 02:02:41;;;;;;;1.85;0.60;;;;;;;16.43;41.72;91121.25;5029498;28;20047;-88
2022/04/09 02:05:07;;;;;;;1.60;0.80;;;;;;;16.42;41.84;91133.44;5012934;28;20033;-87
2022/04/09 02:07:32;;;;;;;2.10;1.27;;;;;;;16.42;41.58;91140.91;5035937;28;20045;-88
2022/04/09 02:09:58;;;;;;;0.80;0.75;;;;;;;16.41;41.81;91148.34;5041462;28;20045;-87
2022/04/09 02:12:23;;;;;;;1.52;0.90;;;;;;;16.41;42.10;91158.53;5012489;28;20424;-89
2022/04/09 02:14:49;;;;;;;2.20;0.70;;;;;;;16.42;41.63;91162.72;5013714;28;20618;-88
2022/04/09 02:17:15;;;;;;;0.60;0.50;;;;;;;16.41;41.73;91153.81;5029547;28;20034;-89
2022/04/09 02:19:40;;;;;;;1.25;0.90;;;;;;;16.41;41.95;91174.91;5030447;28;20061;-87
2022/04/09 02:22:06;;;;;;;1.40;0.93;;;;;;;16.41;41.71;91177.63;5012373;28;20106;-90
2022/04/09 02:24:31;;;;;;;0.88;0.70;;;;;;;16.43;41.86;91180.53;5027919;28;20033;-91
2022/04/09 02:26:57;;;;;;;0.80;0.70;;;;;;;16.41;41.82;91178.34;4995688;28;20392;-88
2022/04/09 02:29:22;;;;;;;1.00;0.60;;;;;;;16.40;41.79;91176.16;5030205;28;20045;-88
2022/04/09 02:31:48;;;;;;;1.02;0.52;;;;;;;16.39;41.93;91189.06;5046343;28;20044;-90
2022/04/09 02:34:13;;;;;;;1.00;0.90;;;;;;;16.38;42.02;91193.09;5029879;28;20385;-89
2022/04/09 02:36:39;;;;;;;1.08;0.80;;;;;;;16.42;42.07;91203.63;5031080;28;20484;-91
2022/04/09 02:39:04;;;;;;;0.90;0.70;;;;;;;16.41;41.73;91185.81;5033720;28;20766;-91
2022/04/09 02:41:30;;;;;;;0.80;0.80;;;;;;;16.40;41.88;91206.16;5049657;28;20542;-87
2022/04/09 02:43:55;;;;;;;1.05;0.57;;;;;;;16.41;41.93;91208.34;5033492;28;20140;-87
2022/04/09 02:46:21;;;;;;;0.82;0.60;;;;;;;16.39;42.37;91215.63;5029425;28;20041;-90
2022/04/09 02:48:47;;;;;;;1.00;0.73;;;;;;;16.43;41.63;91222.16;5046588;28;20185;-88
2022/04/09 02:51:13;;;;;;;0.90;0.60;;;;;;;16.40;42.02;91223.25;5029094;28;20038;-87
2022/04/09 02:53:38;;;;;;;1.17;0.70;;;;;;;16.40;41.99;91230.72;5029623;28;20041;-89
2022/04/09 02:56:04;;;;;;;0.75;0.60;;;;;;;16.38;41.84;91231.25;5029423;28;20082;-87
2022/04/09 02:58:29;;;;;;;0.50;0.50;;;;;;;16.38;42.14;91231.25;5029428;28;20046;-88
2022/04/09 03:00:55;;;;;;;0.90;0.60;;;;;;;16.41;41.83;91251.25;5013039;28;20515;-88
2022/04/09 03:03:20;;;;;;;1.33;0.80;;;;;;;16.42;41.75;91272.50;5029009;28;20038;-89
2022/04/09 03:05:46;;;;;;;2.05;0.80;;;;;;;16.38;42.04;91280.34;5029669;28;20409;-86
2022/04/09 03:08:11;;;;;;;0.90;0.60;;;;;;;16.38;41.83;91268.69;5029410;28;20404;-89
2022/04/09 03:10:37;;;;;;;0.45;0.43;;;;;;;16.37;42.28;91302.69;5012563;28;20688;-87
2022/04/09 03:13:04;;;;;;;1.08;0.63;;;;;;;16.39;42.25;91322.69;5028500;28;20393;-86
2022/04/09 03:15:29;;;;;;;0.60;0.40;;;;;;;16.39;42.19;91308.31;5038010;28;20037;-88
2022/04/09 03:17:55;;;;;;;0.60;0.55;;;;;;;16.38;42.13;91293.97;5032949;28;20711;-92
2022/04/09 03:20:20;;;;;;;0.70;0.60;;;;;;;16.37;42.17;91289.06;5032057;28;20044;-87
2022/04/09 03:22:46;;;;;;;1.10;0.70;;;;;;;16.36;42.01;91296.50;5030681;28;20021;-89
2022/04/09 03:25:12;;;;;;;2.60;0.70;;;;;;;16.39;41.93;91300.16;5011932;28;20091;-87
2022/04/09 03:27:38;;;;;;;0.75;0.70;;;;;;;16.37;41.89;91308.16;5028768;28;20033;-89
2022/04/09 03:30:04;;;;;;;0.90;0.60;;;;;;;16.38;42.16;91312.31;5028660;28;20115;-90
2022/04/09 03:32:30;;;;;;;1.00;0.60;;;;;;;16.36;42.25;91331.22;5012274;28;20038;-88
2022/04/09 03:34:57;;;;;;;0.77;0.63;;;;;;;16.36;42.15;91321.06;5028822;28;20449;-89
2022/04/09 03:37:22;;;;;;;0.77;0.55;;;;;;;16.36;42.17;91334.69;5017949;28;20045;-87
2022/04/09 03:39:49;;;;;;;0.65;0.60;;;;;;;16.39;42.06;91332.88;5031912;28;20834;-87
2022/04/09 03:42:15;;;;;;;1.10;0.60;;;;;;;16.37;42.05;91351.78;5032108;28;20030;-87
2022/04/09 03:44:40;;;;;;;0.43;0.43;;;;;;;16.34;42.00;91348.13;5048498;28;20056;-87
2022/04/09 03:47:06;;;;;;;0.57;0.50;;;;;;;16.34;42.29;91361.03;5025753;28;20121;-87
2022/04/09 03:49:32;;;;;;;0.65;0.52;;;;;;;16.34;42.09;91361.03;5012214;28;20423;-90
2022/04/09 03:51:57;;;;;;;0.70;0.55;;;;;;;16.34;41.95;91367.22;5011863;28;20038;-87
2022/04/09 03:54:23;;;;;;;1.15;0.52;;;;;;;16.35;42.41;91371.41;5011793;28;20099;-91
2022/04/09 03:56:49;;;;;;;0.70;0.70;;;;;;;16.37;42.17;91392.69;4995850;28;20037;-92
2022/04/09 03:59:15;;;;;;;0.30;0.30;;;;;;;16.38;42.23;91399.59;5012464;28;20092;-91
2022/04/09 04:01:43;;;;;;;0.40;0.40;;;;;;;16.35;42.06;91393.22;5011853;28;20037;-86
2022/04/09 04:04:10;;;;;;;0.95;0.60;;;;;;;16.35;42.08;91395.94;5011845;28;20045;-87
2022/04/09 04:06:35;;;;;;;1.55;0.50;;;;;;;16.34;42.21;91405.41;5031038;28;20110;-88
2022/04/09 04:09:01;;;;;;;0.70;0.50;;;;;;;16.34;42.04;91407.41;5011780;28;20432;-88
2022/04/09 04:11:27;;;;;;;0.65;0.50;;;;;;;16.32;42.03;91418.84;5011660;28;20041;-87
2022/04/09 04:13:53;;;;;;;0.47;0.40;;;;;;;16.34;42.29;91423.75;5011354;28;20676;-88
2022/04/09 04:16:18;;;;;;;0.60;0.60;;;;;;;16.33;41.93;91428.47;5045134;28;20113;-91
2022/04/09 04:18:44;;;;;;;0.47;0.47;;;;;;;16.35;42.11;91457.94;5029513;28;20025;-87
2022/04/09 04:21:09;;;;;;;0.93;0.60;;;;;;;16.35;41.96;91460.66;5027287;28;20413;-89
2022/04/09 04:23:35;;;;;;;0.70;0.40;;;;;;;16.35;42.15;91479.75;5028154;28;20034;-88
2022/04/09 04:26:00;;;;;;;0.73;0.60;;;;;;;16.34;42.04;91486.47;5026248;28;20447;-92
2022/04/09 04:28:29;;;;;;;0.80;0.52;;;;;;;16.35;42.02;91498.84;5047241;28;20041;-87
2022/04/09 04:30:54;;;;;;;0.98;0.50;;;;;;;16.35;42.09;91507.75;5047082;28;20048;-88
2022/04/09 04:33:21;;;;;;;0.30;0.30;;;;;;;16.34;42.44;91535.56;5031158;28;20036;-89
2022/04/09 04:35:46;;;;;;;2.05;1.83;;;;;;;16.36;41.98;91546.66;5030673;28;20032;-86
2022/04/09 04:38:12;;;;;;;1.98;1.70;;;;;;;16.35;42.00;91556.09;5030474;28;20037;-88
2022/04/09 04:40:37;;;;;;;1.75;1.65;;;;;;;16.38;42.21;91565.91;5047893;28;20419;-90
2022/04/09 04:43:03;;;;;;;1.63;1.02;;;;;;;16.35;41.84;91578.63;5046988;28;20055;-87
2022/04/09 04:45:29;;;;;;;1.25;0.98;;;;;;;16.38;41.87;91599.38;5030797;28;20061;-91
2022/04/09 04:47:55;;;;;;;1.10;0.90;;;;;;;16.35;42.17;91611.34;5048049;28;20033;-91
2022/04/09 04:50:22;;;;;;;0.80;0.77;;;;;;;16.34;41.93;91618.09;5029954;28;20483;-88
2022/04/09 04:52:47;;;;;;;1.70;1.20;;;;;;;16.34;41.99;91650.06;5019185;28;20483;-89
2022/04/09 04:55:14;;;;;;;1.70;1.17;;;;;;;16.34;42.10;91686.25;5029732;28;20044;-88
2022/04/09 04:57:42;;;;;;;0.93;0.80;;;;;;;16.34;42.25;91697.16;5030857;28;20120;-87
2022/04/09 05:00:08;;;;;;;1.35;0.93;;;;;;;16.33;42.14;91712.06;5030432;28;20044;-86
2022/04/09 05:02:34;;;;;;;1.20;0.93;;;;;;;16.34;41.83;91721.69;5030799;28;20036;-87
2022/04/09 05:05:01;;;;;;;1.52;1.08;;;;;;;16.33;42.00;91728.41;5047133;28;20037;-88
2022/04/09 05:07:41;;;;;;;0.80;0.80;;;;;;;16.34;42.04;91734.59;5030202;28;20507;-88
2022/04/09 05:10:07;;;;;;;0.80;0.80;;;;;;;16.34;41.89;91759.16;5043015;28;20544;-89
2022/04/09 05:12:34;;;;;;;0.80;0.70;;;;;;;16.37;42.08;91771.72;5027356;28;20500;-88
2022/04/09 05:14:59;;;;;;;1.02;0.90;;;;;;;16.34;41.95;91787.16;5026747;28;20711;-90
2022/04/09 05:17:25;;;;;;;1.27;1.02;;;;;;;16.34;42.17;91806.22;5010540;28;20048;-89
2022/04/09 05:19:50;;;;;;;1.10;1.00;;;;;;;16.37;41.82;91812.63;5010215;28;20107;-87
2022/04/09 05:22:16;;;;;;;0.80;0.80;;;;;;;16.33;41.98;91815.69;5026519;28;20452;-89
2022/04/09 05:24:41;;;;;;;1.05;0.80;;;;;;;16.34;41.78;91830.03;4994065;28;20133;-88
2022/04/09 05:27:07;;;;;;;1.40;0.95;;;;;;;16.33;42.04;91840.22;5042997;28;20042;-86
2022/04/09 05:29:32;;;;;;;1.42;0.90;;;;;;;16.33;41.67;91856.56;5026803;28;20033;-89
2022/04/09 05:31:59;;;;;;;1.05;0.93;;;;;;;16.33;41.84;91867.50;5042930;28;20467;-87
2022/04/09 05:34:25;;;;;;;0.95;0.90;;;;;;;16.34;41.75;91871.69;5026446;28;20037;-90
2022/04/09 05:36:50;;;;;;;0.73;0.70;;;;;;;16.36;41.79;91876.59;5010079;28;20052;-91
2022/04/09 05:39:17;;;;;;;0.90;0.70;;;;;;;16.34;41.70;91892.75;5026128;28;20029;-88
2022/04/09 05:41:43;;;;;;;1.45;0.90;;;;;;;16.34;41.99;91879.13;5009684;28;20033;-90
2022/04/09 05:44:09;;;;;;;1.52;0.90;;;;;;;16.35;41.98;91902.41;4993734;28;20044;-88
2022/04/09 05:46:34;;;;;;;0.90;0.80;;;;;;;16.33;41.97;91913.13;5035356;28;20104;-87
2022/04/09 05:49:00;;;;;;;1.10;0.85;;;;;;;16.33;42.14;91916.56;5029805;28;20040;-87
2022/04/09 05:51:25;;;;;;;0.93;0.60;;;;;;;16.34;41.77;91925.47;5012897;28;20029;-87
2022/04/09 05:53:51;;;;;;;1.27;0.70;;;;;;;16.34;42.03;91942.56;5029829;28;20034;-90
2022/04/09 05:56:16;;;;;;;0.88;0.80;;;;;;;16.34;42.00;91948.03;5012058;28;20067;-87
2022/04/09 05:58:42;;;;;;;0.70;0.70;;;;;;;16.35;41.57;91976.03;5013385;28;20064;-90
2022/04/09 06:01:07;;;;;;;0.80;0.70;;;;;;;16.32;41.93;91994.19;5014078;28;20037;-90
2022/04/09 06:03:33;;;;;;;0.57;0.52;;;;;;;16.34;41.84;92010.03;5017934;28;20316;-87
2022/04/09 06:05:58;;;;;;;0.55;0.55;;;;;;;16.33;41.97;92033.09;5016825;28;20705;-88
2022/04/09 06:08:24;;;;;;;1.20;0.88;;;;;;;16.35;41.63;92044.22;5015383;28;20041;-90
2022/04/09 06:10:49;;;;;;;1.00;0.77;;;;;;;16.33;41.93;92046.72;5030538;28;20038;-90
2022/04/09 06:13:15;;;;;;;0.60;0.60;;;;;;;16.32;41.86;92054.19;5013696;28;20053;-90
2022/04/09 06:15:41;;;;;;;1.02;0.70;;;;;;;16.32;41.79;92062.38;5030714;28;20040;-89
2022/04/09 06:18:07;;;;;;;0.80;0.73;;;;;;;16.30;41.66;92067.59;5013488;28;20042;-86
2022/04/09 06:20:33;;;;;;;1.27;0.65;;;;;;;16.31;41.66;92081.97;5030849;28;20528;-89
2022/04/09 06:22:59;;;;;;;4.22;0.77;;;;;;;16.31;41.85;92090.91;5014236;28;20033;-88
2022/04/09 06:25:25;;;;;;;2.22;1.13;;;;;;;16.31;41.92;92099.06;5030413;28;20063;-92
2022/04/09 06:27:50;;;;;;;19.92;4.35;;;;;;;16.35;42.03;92115.13;5017975;28;20527;-89
2022/04/09 06:30:16;;;;;;;7.55;1.92;;;;;;;16.33;41.64;92115.66;4998804;28;20401;-90
2022/04/09 06:32:41;;;;;;;9.27;2.35;;;;;;;16.34;41.51;92122.56;5031596;28;20431;-92
2022/04/09 06:35:07;;;;;;;14.13;2.88;;;;;;;16.35;41.82;92121.31;5032566;28;20033;-87
2022/04/09 06:37:36;;;;;;;4.05;2.10;;;;;;;16.36;41.54;92135.69;5032315;28;20592;-90
2022/04/09 06:40:02;;;;;;;3.97;2.20;;;;;;;16.35;41.86;92139.66;5036633;28;20057;-91
2022/04/09 06:42:27;;;;;;;11.90;4.43;;;;;;;16.37;41.55;92153.50;5036548;28;20033;-91
2022/04/09 06:44:53;;;;;;;20.58;5.90;;;;;;;16.35;41.90;92156.03;5036531;28;20037;-86
2022/04/09 06:47:18;;;;;;;41.92;13.77;;;;;;;16.34;41.50;92170.91;5039282;28;20037;-88
2022/04/09 06:49:43;;;;;;;70.95;24.13;;;;;;;16.32;41.21;92163.25;5021677;28;20055;-91
2022/04/09 06:52:09;;;;;;;62.55;23.45;;;;;;;16.33;41.30;92183.81;5037925;28;20274;-89
2022/04/09 06:54:34;;;;;;;50.00;17.90;;;;;;;16.34;40.93;92207.09;5038105;28;20499;-91
2022/04/09 06:57:00;;;;;;;79.68;20.67;;;;;;;16.32;41.08;92214.34;5053535;28;20037;-87
2022/04/09 06:59:25;;;;;;;59.17;19.60;;;;;;;16.32;40.84;92209.63;5036754;28;20033;-90
2022/04/09 07:01:52;;;;;;;74.68;21.73;;;;;;;16.30;40.89;92208.69;5039686;28;20033;-90
2022/04/09 07:04:17;;;;;;;81.80;19.90;;;;;;;16.29;40.86;92209.94;5021003;28;20037;-87
2022/04/09 07:06:46;;;;;;;83.68;20.77;;;;;;;16.32;40.88;92227.97;5036970;28;20060;-87
2022/04/09 07:09:12;;;;;;;49.22;17.60;;;;;;;16.29;40.80;92227.03;5020052;28;20040;-88
2022/04/09 07:11:38;;;;;;;39.83;16.30;;;;;;;16.31;41.11;92240.13;5041001;28;20075;-87
2022/04/09 07:14:04;;;;;;;57.35;20.70;;;;;;;16.30;41.13;92235.94;5058261;28;20041;-87
2022/04/09 07:16:31;;;;;;;46.50;19.38;;;;;;;16.31;40.81;92242.88;5040857;28;20045;-90
2022/04/09 07:18:56;;;;;;;82.18;22.30;;;;;;;16.30;40.74;92257.75;5040156;28;20045;-91
2022/04/09 07:21:22;;;;;;;63.22;20.45;;;;;;;16.32;40.92;92260.69;5040420;28;20451;-88
2022/04/09 07:23:47;;;;;;;56.78;21.58;;;;;;;16.30;41.02;92272.13;5041648;28;20033;-86
2022/04/09 07:26:12;;;;;;;68.60;23.77;;;;;;;16.31;41.25;92281.78;5038962;28;20032;-87
2022/04/09 07:28:38;;;;;;;91.38;25.98;;;;;;;16.32;41.33;92293.44;5020611;28;20500;-87
2022/04/09 07:31:03;;;;;;;61.72;22.80;;;;;;;16.31;41.03;92287.25;5023342;28;20051;-88
2022/04/09 07:33:29;;;;;;;72.47;25.88;;;;;;;16.35;40.93;92297.84;5039572;28;20037;-86
2022/04/09 07:35:54;;;;;;;70.85;24.65;;;;;;;16.32;41.12;92298.88;5034907;28;20044;-86
2022/04/09 07:38:19;;;;;;;81.75;23.95;;;;;;;16.31;41.00;92300.88;5016351;28;20499;-89
2022/04/09 07:40:45;;;;;;;67.25;23.33;;;;;;;16.27;41.01;92305.91;5033417;28;20443;-89
2022/04/09 07:43:10;;;;;;;51.38;21.23;;;;;;;16.30;41.18;92317.75;5032668;28;20692;-88
2022/04/09 07:45:36;;;;;;;72.78;24.20;;;;;;;16.30;41.07;92315.75;5034619;28;20060;-86
2022/04/09 07:48:01;;;;;;;58.78;24.08;;;;;;;16.29;40.61;92325.19;5034024;28;20040;-89
2022/04/09 07:50:28;;;;;;;58.78;22.95;;;;;;;16.29;40.83;92332.66;5015773;28;20064;-87
2022/04/09 07:52:53;;;;;;;68.65;25.00;;;;;;;16.29;40.75;92336.09;5033442;28;20037;-89
2022/04/09 07:55:19;;;;;;;69.95;25.15;;;;;;;16.29;41.17;92347.03;5032376;28;20056;-88
2022/04/09 07:57:45;;;;;;;66.05;25.33;;;;;;;16.29;40.91;92349.75;5017069;28;20039;-90
2022/04/09 08:00:11;;;;;;;67.05;27.08;;;;;;;16.29;40.95;92354.47;5014692;28;20041;-88
2022/04/09 08:02:37;;;;;;;90.88;31.55;;;;;;;16.30;41.04;92361.38;5047915;28;20554;-89
2022/04/09 08:05:02;;;;;;;73.53;32.40;;;;;;;16.29;40.94;92357.19;5034359;28;20239;-87
2022/04/09 08:07:28;;;;;;;86.78;27.60;;;;;;;16.31;40.77;92360.13;5016134;28;20037;-87
2022/04/09 08:09:53;;;;;;;65.75;27.88;;;;;;;16.29;41.07;92371.56;5016567;28;20041;-91
2022/04/09 08:12:19;;;;;;;79.50;30.90;;;;;;;16.31;41.07;92384.69;5016670;28;20037;-87
2022/04/09 08:14:45;;;;;;;73.75;30.38;;;;;;;16.30;40.78;92383.22;5002130;28;20087;-88
2022/04/09 08:17:10;;;;;;;84.57;30.95;;;;;;;16.32;40.97;92383.44;5032542;28;20504;-89
2022/04/09 08:19:36;;;;;;;101.40;36.00;;;;;;;16.37;40.88;92407.88;5016662;28;20096;-90
2022/04/09 08:22:04;;;;;;;94.90;37.85;;;;;;;16.32;40.83;92402.50;5033066;28;20108;-86
2022/04/09 08:24:30;;;;;;;103.47;38.53;;;;;;;16.31;41.10;92406.50;4998250;28;20629;-89
2022/04/09 08:26:55;;;;;;;93.57;36.30;;;;;;;16.32;41.16;92410.69;5033643;28;20045;-91
2022/04/09 08:29:21;;;;;;;100.13;39.83;;;;;;;16.31;40.74;92404.50;5029420;28;20037;-87
2022/04/09 08:31:47;;;;;;;89.55;35.42;;;;;;;16.31;40.73;92409.97;5026703;28;20029;-88
2022/04/09 08:34:17;;;;;;;93.68;37.38;;;;;;;16.31;41.07;92407.22;5051442;28;20814;-89
2022/04/09 08:36:42;;;;;;;75.15;31.98;;;;;;;16.33;40.57;92412.91;5049973;28;20025;-93
2022/04/09 08:39:07;;;;;;;76.93;32.65;;;;;;;16.34;40.88;92416.38;5015248;28;20063;-90
2022/04/09 08:41:36;;;;;;;85.15;34.65;;;;;;;16.33;40.63;92410.19;5031413;28;20033;-87
2022/04/09 08:44:02;;;;;;;90.18;34.60;;;;;;;16.33;40.53;92423.81;5031742;28;20037;-86
2022/04/09 08:46:27;;;;;;;81.40;36.13;;;;;;;16.34;40.88;92419.09;5013014;28;20076;-88
2022/04/09 08:48:52;;;;;;;84.15;36.08;;;;;;;16.34;40.91;92432.72;5012305;28;20056;-86
2022/04/09 08:51:18;;;;;;;75.63;33.05;;;;;;;16.35;40.82;92426.03;5029615;28;20199;-86
2022/04/09 08:53:44;;;;;;;90.03;34.03;;;;;;;16.34;40.63;92435.47;5013415;28;20045;-90
2022/04/09 08:56:11;;;;;;;95.97;35.42;;;;;;;16.32;40.63;92430.53;5029375;28;20049;-92
2022/04/09 08:58:36;;;;;;;84.25;35.15;;;;;;;16.35;40.91;92431.47;5011600;28;20128;-91
2022/04/09 09:01:01;;;;;;;73.53;35.95;;;;;;;16.34;40.70;92430.00;5027872;28;20519;-90
2022/04/09 09:03:27;;;;;;;101.05;37.08;;;;;;;16.34;40.68;92436.19;5027621;28;20475;-90
2022/04/09 09:05:52;;;;;;;96.40;36.42;;;;;;;16.33;40.79;92432.00;5028014;28;20401;-94
2022/04/09 09:08:42;;;;;;;94.68;37.83;;;;;;;16.34;40.84;92430.00;5026998;28;20037;-90
2022/04/09 09:11:08;;;;;;;82.90;37.50;;;;;;;16.34;40.65;92424.53;5011716;28;20091;-88
2022/04/09 09:13:52;;;;;;;117.55;44.35;;;;;;;16.31;40.65;92429.03;5044428;28;20596;-90
2022/04/09 09:16:25;;;;;;;124.53;46.22;;;;;;;16.33;40.90;92428.53;5028170;28;20052;-86
2022/04/09 09:18:51;;;;;;;114.85;44.38;;;;;;;16.32;40.81;92440.69;5011313;28;20611;-89
2022/04/09 09:21:18;;;;;;;121.97;44.38;;;;;;;16.33;40.90;92429.25;5027194;28;20029;-88
2022/04/09 09:23:43;;;;;;;103.65;38.83;;;;;;;16.36;40.56;92444.59;5010663;28;20382;-92
2022/04/09 09:26:09;;;;;;;111.35;44.15;;;;;;;16.35;40.56;92443.13;5043359;28;20072;-85
2022/04/09 09:28:35;;;;;;;116.47;41.38;;;;;;;16.37;40.57;92442.59;5030770;28;20537;-94
2022/04/09 09:31:01;;;;;;;100.40;40.90;;;;;;;16.35;40.51;92437.66;5042124;28;20048;-87
2022/04/09 09:33:27;;;;;;;113.18;41.60;;;;;;;16.34;40.86;92443.63;5027101;28;20033;-86
2022/04/09 09:35:59;;;;;;;103.97;43.05;;;;;;;16.35;40.85;92440.41;5009723;28;20041;-87
2022/04/09 09:38:28;;;;;;;107.50;43.33;;;;;;;16.35;40.56;92448.56;5034210;28;20504;-86
2022/04/09 09:40:55;;;;;;;105.97;40.22;;;;;;;16.36;40.46;92441.88;5045932;28;20137;-86
2022/04/09 09:43:21;;;;;;;90.82;36.55;;;;;;;16.38;40.89;92450.25;5010018;28;20040;-86
2022/04/09 09:45:48;;;;;;;94.32;40.45;;;;;;;16.38;40.81;92450.25;5026598;28;20030;-90
2022/04/09 09:48:20;;;;;;;100.20;39.28;;;;;;;16.38;40.57;92436.63;5011019;28;20044;-86
2022/04/09 09:50:46;;;;;;;99.18;41.42;;;;;;;16.42;40.76;92433.59;5027019;28;20061;-85
2022/04/09 09:53:11;;;;;;;104.00;42.92;;;;;;;16.41;40.38;92443.78;5026122;28;20041;-88
2022/04/09 09:55:43;;;;;;;86.70;39.38;;;;;;;16.41;40.53;92437.59;5027397;28;20409;-88
2022/04/09 09:58:12;;;;;;;104.47;44.20;;;;;;;16.43;40.64;92454.16;4994085;28;20034;-89
2022/04/09 10:00:37;;;;;;;108.78;42.35;;;;;;;16.41;40.78;92451.97;4993935;28;20120;-88
2022/04/09 10:03:03;;;;;;;114.70;42.78;;;;;;;16.41;40.30;92457.41;5042084;28;20044;-87
2022/04/09 10:05:28;;;;;;;130.73;45.03;;;;;;;16.37;40.74;92453.50;5025863;28;20143;-85
2022/04/09 10:07:56;;;;;;;125.43;46.22;;;;;;;16.43;40.66;92460.34;5009660;28;20037;-90
2022/04/09 10:10:24;;;;;;;110.07;45.80;;;;;;;16.39;40.74;92459.91;5008814;28;20124;-86
2022/04/09 10:12:49;;;;;;;108.45;45.78;;;;;;;16.41;40.38;92456.69;5010024;28;20498;-85
2022/04/09 10:15:15;;;;;;;107.38;42.97;;;;;;;16.40;40.65;92464.13;5027596;28;20476;-89
2022/04/09 10:17:40;;;;;;;101.40;41.72;;;;;;;16.41;40.39;92460.13;5045944;28;20540;-85
2022/04/09 10:20:07;;;;;;;105.53;46.33;;;;;;;16.42;40.33;92469.78;5044924;28;20037;-85
2022/04/09 10:22:41;;;;;;;118.05;48.85;;;;;;;16.41;40.75;92473.78;5029167;28;20120;-85
2022/04/09 10:25:08;;;;;;;118.75;47.85;;;;;;;16.41;40.47;92486.69;5029361;28;20047;-84
2022/04/09 10:27:44;;;;;;;105.97;42.78;;;;;;;16.40;40.26;92488.66;5045765;28;20029;-85
2022/04/09 10:30:14;;;;;;;157.45;50.05;;;;;;;16.40;40.62;92482.47;5045780;28;20068;-86
2022/04/09 10:32:51;;;;;;;123.47;45.38;;;;;;;16.42;40.50;92477.25;5028343;28;20051;-86
2022/04/09 10:35:38;;;;;;;119.22;44.80;;;;;;;16.43;40.77;92484.91;5025046;28;20128;-85
2022/04/09 10:38:06;;;;;;;114.93;43.97;;;;;;;16.41;40.42;92503.78;5009498;28;20112;-86
2022/04/09 10:40:32;;;;;;;131.35;47.05;;;;;;;16.41;40.68;92506.50;5025635;28;20054;-85
2022/04/09 10:42:58;;;;;;;106.22;43.33;;;;;;;16.46;40.71;92507.66;5025674;28;20030;-88
2022/04/09 10:45:24;;;;;;;118.07;43.53;;;;;;;16.43;40.26;92504.00;5025328;28;20060;-84
2022/04/09 10:48:11;;;;;;;112.97;42.03;;;;;;;16.42;40.34;92499.81;5025879;28;20038;-87
2022/04/09 10:50:59;;;;;;;137.77;46.35;;;;;;;16.45;40.41;92511.66;4978265;28;20117;-87
2022/04/09 10:53:36;;;;;;;103.53;41.22;;;;;;;16.43;40.35;92514.91;5009019;28;20034;-85
2022/04/09 10:56:11;;;;;;;106.03;41.55;;;;;;;16.45;40.39;92519.84;4993217;28;20048;-88
2022/04/09 10:59:05;;;;;;;120.72;42.00;;;;;;;16.45;40.78;92528.75;5011035;28;20104;-85
2022/04/09 11:01:46;;;;;;;118.88;40.67;;;;;;;16.48;40.32;92520.78;5008725;28;20041;-85
2022/04/09 11:04:27;;;;;;;95.30;41.78;;;;;;;16.46;40.60;92524.03;5010313;28;20053;-88
2022/04/09 11:07:01;;;;;;;103.35;38.47;;;;;;;16.46;40.51;92530.22;5010625;28;20049;-86
2022/04/09 11:09:48;;;;;;;95.35;36.47;;;;;;;16.48;40.50;92526.22;5008668;28;20490;-86
2022/04/09 11:12:14;;;;;;;95.50;38.70;;;;;;;16.48;40.43;92534.41;5009042;28;20130;-88
2022/04/09 11:14:55;;;;;;;98.97;40.67;;;;;;;16.45;40.24;92528.75;5009919;28;20108;-90
2022/04/09 11:17:33;;;;;;;114.25;41.70;;;;;;;16.47;40.47;92539.13;4993331;28;20065;-87
2022/04/09 11:20:06;;;;;;;93.50;39.17;;;;;;;16.45;40.58;92528.03;5008462;28;20464;-91
2022/04/09 11:22:33;;;;;;;97.30;38.47;;;;;;;16.46;40.36;92532.94;5008074;28;20041;-88